Preston, Minnesota
Current Conditions -  °F | °C
As of 7:35 AM on Friday 24 Oct 2014 (Local Time) from KFKA Reporting Station
Moderate Fog Moderate Fog  
Wind Chill: 42°   Ceiling: 200
Heat Index: 46°   Visibility: 0mi
Dew Point: 46°   Wind: 8mph
Humidity: 98%   Direction: 160°SSE
Pressure: 29.98"   Gusts: NA
Location:  43.67°N, 92.08°W
Report Text: KFKA 241235Z AUTO 16007KT M1/4SM FG OVC002 08/08 A2998 RMK AO2 T00800077
Loading
Personal Weather Stations






























Interactive Weather Map
Tropical Storm Tracking
New forecast layout! Learn more

10-Day Weather Forecast

Advertisements
Track Severe Weather on mobile